Time;durP1;ratioP1;P1;durP2;ratioP2;P2;SDS_P1;SDS_P2;PMS_P1;PMS_P2;Temp;Humidity;BMP_temperature;BMP_pressure;BME280_temperature;BME280_humidity;BME280_pressure;Samples;Min_cycle;Max_cycle;Signal;HPM_P1;HPM_P2
2022/10/05 00:02:19;;;;;;;2.58;2.03;;;18.40;88.60;;;;;;5011866;28;20022;-79
2022/10/05 00:04:47;;;;;;;3.83;2.30;;;18.30;88.20;;;;;;4998298;28;20599;-79
2022/10/05 00:07:18;;;;;;;3.97;2.03;;;18.30;88.60;;;;;;5003776;28;20504;-78
2022/10/05 00:09:47;;;;;;;3.37;2.37;;;18.30;88.50;;;;;;5003160;28;20037;-79
2022/10/05 00:12:18;;;;;;;4.60;2.10;;;18.30;88.60;;;;;;5003826;28;20334;-79
2022/10/05 00:14:46;;;;;;;3.47;2.28;;;18.40;88.60;;;;;;4998006;28;20025;-79
2022/10/05 00:17:24;;;;;;;2.60;1.85;;;18.30;88.70;;;;;;5030118;28;20029;-80
2022/10/05 00:19:53;;;;;;;2.88;2.00;;;18.30;88.50;;;;;;5006124;28;20419;-79
2022/10/05 00:22:21;;;;;;;3.60;1.93;;;18.30;89.00;;;;;;5021161;28;20675;-78
2022/10/05 00:24:49;;;;;;;3.17;1.83;;;18.30;89.00;;;;;;5007095;28;20025;-79
2022/10/05 00:27:23;;;;;;;3.97;2.00;;;18.30;89.10;;;;;;5006812;28;20064;-79
2022/10/05 00:29:50;;;;;;;4.30;2.17;;;18.30;89.00;;;;;;5005146;28;20018;-79
2022/10/05 00:32:16;;;;;;;3.58;2.40;;;18.30;89.20;;;;;;4997859;28;20460;-79
2022/10/05 00:34:43;;;;;;;3.83;2.10;;;18.30;90.00;;;;;;5019016;28;20065;-79
2022/10/05 00:37:09;;;;;;;4.35;2.30;;;18.20;90.00;;;;;;5019827;28;20186;-80
2022/10/05 00:39:37;;;;;;;3.30;1.90;;;18.20;89.40;;;;;;5016773;28;20123;-79
2022/10/05 00:42:25;;;;;;;4.35;2.03;;;18.30;89.30;;;;;;5002671;28;20505;-80
2022/10/05 00:44:54;;;;;;;3.20;1.90;;;18.20;89.00;;;;;;5010027;28;20502;-79
2022/10/05 00:47:22;;;;;;;3.20;2.13;;;18.30;89.60;;;;;;5004893;28;20041;-79
2022/10/05 00:50:06;;;;;;;3.47;2.10;;;18.20;89.60;;;;;;5011584;28;20127;-79
2022/10/05 00:52:45;;;;;;;3.05;1.90;;;18.20;88.90;;;;;;5015776;28;20137;-79
2022/10/05 00:55:30;;;;;;;3.22;1.80;;;18.20;89.00;;;;;;5004933;28;20032;-79
2022/10/05 00:58:32;;;;;;;3.90;1.73;;;18.20;89.00;;;;;;5036908;28;20025;-79
2022/10/05 01:01:12;;;;;;;3.60;1.85;;;18.20;89.00;;;;;;5009817;28;20034;-79
2022/10/05 01:04:00;;;;;;;3.97;2.20;;;18.20;89.40;;;;;;4999202;28;20121;-79
2022/10/05 01:06:53;;;;;;;2.55;1.80;;;18.20;89.10;;;;;;5014410;28;20064;-79
2022/10/05 01:09:36;;;;;;;3.50;2.13;;;18.20;89.10;;;;;;5003676;28;20088;-79
2022/10/05 01:12:33;;;;;;;3.43;2.00;;;18.20;89.60;;;;;;5001555;28;20025;-79
2022/10/05 01:15:09;;;;;;;3.90;2.05;;;18.20;89.50;;;;;;5020473;28;20040;-79
2022/10/05 01:17:48;;;;;;;4.38;2.10;;;18.10;90.00;;;;;;5004266;28;20116;-80
2022/10/05 01:20:22;;;;;;;3.38;1.98;;;18.10;89.80;;;;;;5031324;28;20067;-81
2022/10/05 01:23:17;;;;;;;2.90;2.05;;;18.10;89.70;;;;;;5024703;28;20045;-79
2022/10/05 01:26:16;;;;;;;3.27;2.07;;;18.20;89.80;;;;;;5010999;28;20221;-79
2022/10/05 01:28:48;;;;;;;3.58;2.10;;;18.10;90.00;;;;;;5004821;28;20084;-79
2022/10/05 01:31:38;;;;;;;4.57;2.40;;;18.10;90.10;;;;;;4988883;28;20407;-79
2022/10/05 01:34:29;;;;;;;4.60;2.20;;;18.10;90.10;;;;;;5022200;28;20027;-79
2022/10/05 01:37:22;;;;;;;4.40;2.28;;;18.10;90.00;;;;;;5016128;28;20043;-79
2022/10/05 01:40:01;;;;;;;3.57;2.20;;;18.10;90.10;;;;;;5016860;28;20029;-79
2022/10/05 01:42:56;;;;;;;3.97;2.13;;;18.10;90.10;;;;;;5005106;28;20029;-80
2022/10/05 01:45:52;;;;;;;3.97;1.90;;;18.00;90.10;;;;;;5000417;28;20475;-79
2022/10/05 01:48:32;;;;;;;4.80;2.00;;;18.00;90.10;;;;;;5003270;28;20648;-79
2022/10/05 01:51:06;;;;;;;3.28;1.90;;;18.00;90.20;;;;;;5018385;28;20112;-80
2022/10/05 01:53:32;;;;;;;2.77;1.73;;;18.00;90.40;;;;;;4990937;28;20034;-79
2022/10/05 01:56:17;;;;;;;2.40;1.73;;;18.00;90.40;;;;;;5011526;28;20032;-79
2022/10/05 01:59:17;;;;;;;2.95;2.00;;;18.00;90.20;;;;;;5028670;28;20053;-79
2022/10/05 02:01:57;;;;;;;4.70;1.90;;;18.00;90.10;;;;;;5007092;28;20056;-79
2022/10/05 02:04:27;;;;;;;2.95;1.90;;;17.90;90.20;;;;;;5007095;28;20029;-79
2022/10/05 02:06:53;;;;;;;3.42;1.83;;;17.90;90.40;;;;;;5007755;28;20025;-79
2022/10/05 02:09:24;;;;;;;3.83;1.90;;;17.90;90.50;;;;;;5008663;28;20326;-79
2022/10/05 02:11:59;;;;;;;3.13;1.70;;;17.90;90.40;;;;;;5012419;28;20045;-79
2022/10/05 02:14:35;;;;;;;3.85;2.10;;;17.90;90.40;;;;;;5021301;28;20033;-79
2022/10/05 02:17:06;;;;;;;2.85;1.67;;;17.90;90.40;;;;;;4991942;28;20029;-79
2022/10/05 02:19:39;;;;;;;3.58;1.90;;;17.80;90.50;;;;;;4983044;28;20038;-79
2022/10/05 02:22:32;;;;;;;3.30;1.83;;;17.80;90.50;;;;;;5015897;28;20396;-78
2022/10/05 02:25:21;;;;;;;2.53;1.80;;;17.80;90.30;;;;;;5009649;28;20097;-79
2022/10/05 02:27:53;;;;;;;3.17;1.70;;;17.80;90.40;;;;;;4998168;28;20355;-80
2022/10/05 02:30:19;;;;;;;3.20;1.70;;;17.70;90.50;;;;;;5013803;28;20179;-79
2022/10/05 02:32:59;;;;;;;2.63;1.80;;;17.70;90.60;;;;;;5024842;28;20505;-79
2022/10/05 02:35:24;;;;;;;3.50;2.00;;;17.60;90.40;;;;;;4979887;28;20383;-78
2022/10/05 02:38:25;;;;;;;4.47;2.38;;;17.70;90.70;;;;;;5017121;28;20194;-80
2022/10/05 02:41:02;;;;;;;3.97;2.20;;;17.60;90.40;;;;;;5006959;28;20229;-79
2022/10/05 02:43:38;;;;;;;3.50;2.10;;;17.60;90.60;;;;;;4987536;28;20505;-79
2022/10/05 02:46:14;;;;;;;3.55;1.83;;;17.50;90.60;;;;;;4991781;28;20574;-79
2022/10/05 02:48:58;;;;;;;3.67;2.20;;;17.50;90.70;;;;;;4988300;28;20041;-79
2022/10/05 02:51:39;;;;;;;3.35;2.00;;;17.40;90.60;;;;;;5006795;28;20121;-79
2022/10/05 02:54:48;;;;;;;3.08;2.10;;;17.40;90.70;;;;;;5026361;28;20026;-79
2022/10/05 02:57:22;;;;;;;3.42;2.00;;;17.30;90.60;;;;;;4997682;28;20309;-80
2022/10/05 03:00:03;;;;;;;4.22;2.22;;;17.30;90.80;;;;;;4995975;28;20514;-80
2022/10/05 03:02:39;;;;;;;3.50;2.13;;;17.30;90.80;;;;;;5014394;28;20113;-80
2022/10/05 03:05:26;;;;;;;4.32;2.30;;;17.20;90.80;;;;;;4975561;28;21284;-79
2022/10/05 03:08:14;;;;;;;4.63;2.25;;;17.20;90.80;;;;;;5014309;28;20026;-79
2022/10/05 03:11:02;;;;;;;3.30;2.00;;;17.10;90.90;;;;;;5011472;28;20036;-79
2022/10/05 03:14:03;;;;;;;4.03;2.40;;;17.10;91.00;;;;;;5010686;28;20037;-79
2022/10/05 03:16:53;;;;;;;3.40;2.00;;;17.10;91.00;;;;;;5003981;28;20033;-80
2022/10/05 03:19:32;;;;;;;4.05;2.30;;;17.10;91.10;;;;;;5001635;28;20064;-79
2022/10/05 03:22:01;;;;;;;4.78;2.22;;;17.10;91.20;;;;;;4980011;28;20018;-79
2022/10/05 03:24:49;;;;;;;3.40;2.00;;;17.00;91.60;;;;;;5016548;28;20120;-80
2022/10/05 03:27:30;;;;;;;4.13;2.17;;;17.00;91.20;;;;;;5003310;28;20253;-80
2022/10/05 03:29:58;;;;;;;4.40;2.50;;;17.00;91.30;;;;;;4997188;28;20044;-79
2022/10/05 03:32:46;;;;;;;4.82;2.22;;;17.00;91.40;;;;;;5005336;28;20491;-79
2022/10/05 03:35:26;;;;;;;4.35;2.30;;;17.00;91.40;;;;;;5016607;28;20277;-79
2022/10/05 03:38:07;;;;;;;3.72;2.22;;;17.00;91.40;;;;;;5020047;28;20025;-80
2022/10/05 03:40:51;;;;;;;3.30;2.10;;;17.00;91.40;;;;;;5007100;28;20474;-79
2022/10/05 03:43:19;;;;;;;3.97;2.20;;;17.00;91.50;;;;;;4994156;28;20105;-79
2022/10/05 03:46:07;;;;;;;3.55;2.17;;;17.00;91.70;;;;;;5002567;28;20508;-79
2022/10/05 03:48:48;;;;;;;3.47;2.25;;;17.00;91.70;;;;;;5014896;28;20049;-79
2022/10/05 03:51:27;;;;;;;5.50;2.40;;;17.00;91.70;;;;;;5007794;28;20161;-79
2022/10/05 03:53:58;;;;;;;4.07;2.20;;;17.00;91.70;;;;;;5012037;28;20037;-79
2022/10/05 03:56:35;;;;;;;3.30;2.13;;;17.00;91.80;;;;;;5002640;28;20022;-80
2022/10/05 03:59:21;;;;;;;2.70;1.90;;;17.00;91.70;;;;;;5008324;28;20651;-80
2022/10/05 04:01:57;;;;;;;3.33;2.10;;;17.00;91.70;;;;;;5022508;28;20022;-80
2022/10/05 04:04:38;;;;;;;3.15;2.03;;;17.00;91.80;;;;;;5013016;28;20057;-79
2022/10/05 04:07:08;;;;;;;3.28;2.05;;;17.00;92.10;;;;;;4992761;28;20545;-79
2022/10/05 04:09:41;;;;;;;3.53;1.93;;;17.10;92.00;;;;;;5015416;28;20037;-79
2022/10/05 04:12:24;;;;;;;4.90;2.10;;;17.10;91.90;;;;;;4999067;28;20103;-79
2022/10/05 04:14:56;;;;;;;3.35;2.10;;;17.00;91.90;;;;;;4995967;28;20025;-79
2022/10/05 04:17:33;;;;;;;3.28;2.08;;;17.10;92.00;;;;;;5018399;28;20025;-79
2022/10/05 04:20:13;;;;;;;3.25;2.00;;;17.00;91.90;;;;;;4996363;28;20174;-82
2022/10/05 04:22:55;;;;;;;3.13;1.90;;;17.00;91.90;;;;;;5016579;28;20482;-78
2022/10/05 04:25:49;;;;;;;3.30;2.20;;;17.00;91.80;;;;;;5015767;28;20388;-79
2022/10/05 04:28:14;;;;;;;2.63;1.65;;;17.00;91.90;;;;;;5005881;28;20675;-81
2022/10/05 04:30:44;;;;;;;3.70;1.83;;;17.00;92.10;;;;;;4998212;28;20309;-79
2022/10/05 04:33:14;;;;;;;2.90;1.90;;;17.00;92.10;;;;;;4993400;28;20018;-79
2022/10/05 04:35:55;;;;;;;2.88;1.90;;;17.00;92.20;;;;;;4990861;28;20017;-80
2022/10/05 04:38:59;;;;;;;2.70;1.80;;;17.00;92.10;;;;;;5006301;28;20126;-80
2022/10/05 04:41:47;;;;;;;2.97;1.52;;;17.00;92.00;;;;;;4998261;28;20041;-79
2022/10/05 04:44:15;;;;;;;3.00;1.53;;;17.10;92.10;;;;;;5022516;28;20349;-80
2022/10/05 04:47:02;;;;;;;2.50;1.50;;;17.10;92.30;;;;;;4992343;28;20263;-80
2022/10/05 04:50:06;;;;;;;2.45;1.42;;;17.10;92.00;;;;;;5004263;28;20068;-80
2022/10/05 04:53:09;;;;;;;2.58;1.60;;;17.10;91.90;;;;;;4992060;28;20652;-80
2022/10/05 04:55:56;;;;;;;2.55;1.65;;;17.20;92.10;;;;;;5015473;28;20470;-80
2022/10/05 04:58:40;;;;;;;2.57;1.60;;;17.20;92.20;;;;;;5010397;28;20010;-79
2022/10/05 05:01:58;;;;;;;2.47;1.58;;;17.20;92.20;;;;;;5005207;28;20056;-82
2022/10/05 05:04:57;;;;;;;2.30;1.40;;;17.30;92.00;;;;;;4928018;28;20057;-79
2022/10/05 05:07:28;;;;;;;1.60;1.13;;;17.30;92.20;;;;;;4991420;28;20033;-78
2022/10/05 05:10:24;;;;;;;2.08;1.30;;;17.30;92.20;;;;;;5018991;28;20080;-81
2022/10/05 05:13:19;;;;;;;2.07;1.17;;;17.30;91.70;;;;;;5002104;28;20120;-79
2022/10/05 05:15:53;;;;;;;1.60;1.23;;;17.40;91.90;;;;;;5004848;28;20569;-79
2022/10/05 05:18:54;;;;;;;1.20;1.00;;;17.40;92.10;;;;;;4998429;28;20360;-79
2022/10/05 05:21:47;;;;;;;2.20;1.23;;;17.40;92.00;;;;;;5012996;28;20038;-79
2022/10/05 05:24:28;;;;;;;2.05;1.33;;;17.40;91.90;;;;;;4991154;28;20475;-79
2022/10/05 05:26:57;;;;;;;2.87;1.20;;;17.50;91.90;;;;;;5001638;28;20033;-79
2022/10/05 05:29:43;;;;;;;2.13;1.33;;;17.40;92.00;;;;;;4994683;28;20597;-79
2022/10/05 05:32:27;;;;;;;2.50;1.40;;;17.40;91.70;;;;;;4997546;28;20110;-79
2022/10/05 05:35:26;;;;;;;2.30;1.40;;;17.40;91.70;;;;;;5021617;28;20043;-80
2022/10/05 05:38:00;;;;;;;2.20;1.33;;;17.40;91.70;;;;;;4979806;28;20341;-79
2022/10/05 05:40:48;;;;;;;1.87;1.20;;;17.40;92.10;;;;;;4997675;28;20029;-80
2022/10/05 05:43:29;;;;;;;2.97;1.50;;;17.40;91.90;;;;;;5013903;28;20163;-80
2022/10/05 05:46:21;;;;;;;1.70;1.20;;;17.30;91.90;;;;;;5005363;28;20022;-80
2022/10/05 05:48:48;;;;;;;2.17;1.25;;;17.40;91.90;;;;;;5002423;28;20056;-80
2022/10/05 05:51:31;;;;;;;2.30;1.40;;;17.40;92.50;;;;;;5003248;28;20088;-78
2022/10/05 05:54:23;;;;;;;1.83;1.37;;;17.40;92.20;;;;;;4997520;28;20030;-79
2022/10/05 05:57:09;;;;;;;2.08;1.25;;;17.40;92.00;;;;;;5010478;28;20020;-78
2022/10/05 06:00:13;;;;;;;2.15;1.23;;;17.40;92.00;;;;;;4998660;28;20085;-79
2022/10/05 06:03:16;;;;;;;2.25;1.40;;;17.40;91.90;;;;;;4996044;28;20071;-79
2022/10/05 06:05:58;;;;;;;2.25;1.38;;;17.30;91.90;;;;;;4985103;28;20238;-79
2022/10/05 06:08:52;;;;;;;1.97;1.30;;;17.40;92.10;;;;;;4968686;28;20191;-79
2022/10/05 06:11:21;;;;;;;3.85;1.50;;;17.40;92.30;;;;;;5015727;28;20089;-79
2022/10/05 06:13:48;;;;;;;2.45;1.40;;;17.30;92.40;;;;;;5024082;28;20022;-82
2022/10/05 06:16:30;;;;;;;2.53;1.30;;;17.30;92.40;;;;;;5018899;28;20018;-82
2022/10/05 06:19:04;;;;;;;1.67;1.33;;;17.40;92.30;;;;;;4985190;28;20029;-82
2022/10/05 06:21:44;;;;;;;2.00;1.40;;;17.30;92.40;;;;;;5003716;28;20726;-79
2022/10/05 06:24:09;;;;;;;2.50;1.38;;;17.40;92.60;;;;;;5007553;28;20437;-80
2022/10/05 06:27:12;;;;;;;2.50;1.50;;;17.40;92.60;;;;;;5000617;28;20152;-81
2022/10/05 06:29:47;;;;;;;2.03;1.20;;;17.40;92.40;;;;;;5003764;28;20049;-79
2022/10/05 06:32:12;;;;;;;3.65;1.30;;;17.40;92.60;;;;;;4988966;28;20257;-79
2022/10/05 06:34:38;;;;;;;1.47;1.20;;;17.40;92.80;;;;;;5001864;28;20586;-79
2022/10/05 06:37:18;;;;;;;3.10;1.30;;;17.40;92.80;;;;;;5009609;28;20045;-79
2022/10/05 06:40:10;;;;;;;2.22;1.40;;;17.50;92.70;;;;;;4983831;28;20048;-80
2022/10/05 06:43:00;;;;;;;1.47;1.00;;;17.50;92.30;;;;;;5013796;28;20379;-79
2022/10/05 06:45:58;;;;;;;2.55;1.38;;;17.50;92.60;;;;;;5015005;28;20677;-79
2022/10/05 06:48:50;;;;;;;1.65;1.23;;;17.50;92.80;;;;;;4988156;28;20044;-79
2022/10/05 06:51:27;;;;;;;2.40;1.23;;;17.60;92.70;;;;;;4997662;28;20048;-79
2022/10/05 06:54:36;;;;;;;1.90;1.30;;;17.50;92.70;;;;;;5001985;28;20095;-79
2022/10/05 06:57:08;;;;;;;2.23;1.20;;;17.60;92.50;;;;;;5004772;28;20026;-79
2022/10/05 06:59:47;;;;;;;1.83;1.30;;;17.60;93.10;;;;;;4990666;28;20539;-79
2022/10/05 07:02:40;;;;;;;2.40;1.50;;;17.60;92.90;;;;;;4986399;28;20020;-81
2022/10/05 07:05:40;;;;;;;2.33;1.38;;;17.70;92.70;;;;;;4997819;28;20039;-80
2022/10/05 07:08:12;;;;;;;2.22;1.20;;;17.70;92.70;;;;;;5015300;28;20029;-79
2022/10/05 07:11:02;;;;;;;2.27;1.30;;;17.80;93.10;;;;;;4999439;28;20027;-81
2022/10/05 07:13:50;;;;;;;1.67;1.20;;;17.80;92.90;;;;;;4993502;28;20127;-80
2022/10/05 07:16:53;;;;;;;1.50;1.00;;;17.90;92.60;;;;;;5014257;28;20030;-81
2022/10/05 07:19:51;;;;;;;1.98;1.10;;;17.90;92.60;;;;;;5013546;28;20026;-82
2022/10/05 07:22:38;;;;;;;2.15;1.30;;;18.00;92.50;;;;;;5017946;28;20048;-80
2022/10/05 07:25:19;;;;;;;2.57;1.20;;;18.10;92.60;;;;;;5022539;28;20053;-80
2022/10/05 07:28:07;;;;;;;2.13;1.40;;;18.10;93.10;;;;;;5014823;28;20119;-81
2022/10/05 07:30:58;;;;;;;2.55;1.38;;;18.20;92.60;;;;;;5016146;28;20051;-79
2022/10/05 07:33:45;;;;;;;3.00;1.20;;;18.20;92.60;;;;;;5009062;28;20069;-80
2022/10/05 07:39:21;;;;;;;2.63;1.20;;;18.30;92.70;;;;;;5018710;28;20146;-80
2022/10/05 07:42:07;;;;;;;2.40;1.40;;;18.40;92.80;;;;;;4995379;28;20029;-81
2022/10/05 07:44:42;;;;;;;1.92;1.20;;;18.40;92.40;;;;;;5017708;28;20025;-81
2022/10/05 07:47:16;;;;;;;2.00;1.20;;;18.50;93.00;;;;;;5009572;28;20060;-80
2022/10/05 07:50:02;;;;;;;2.08;1.30;;;18.60;93.30;;;;;;5020813;28;20501;-81
2022/10/05 07:52:36;;;;;;;1.43;1.20;;;18.60;92.60;;;;;;4998972;28;20753;-80
2022/10/05 07:55:24;;;;;;;1.42;1.20;;;18.70;92.90;;;;;;5015996;28;20071;-80
2022/10/05 07:58:04;;;;;;;1.50;1.27;;;18.70;92.80;;;;;;4992211;28;20152;-79
2022/10/05 08:00:55;;;;;;;1.52;1.17;;;18.80;92.80;;;;;;5019814;28;20480;-80
2022/10/05 08:03:51;;;;;;;2.20;1.10;;;18.80;92.90;;;;;;5009928;28;20066;-82
2022/10/05 08:06:39;;;;;;;2.00;1.20;;;18.90;92.40;;;;;;4995072;28;20025;-82
2022/10/05 08:09:11;;;;;;;2.35;1.30;;;18.90;92.40;;;;;;5010302;28;20049;-80
2022/10/05 08:11:50;;;;;;;1.67;1.30;;;19.00;92.80;;;;;;5012582;28;20356;-80
2022/10/05 08:14:32;;;;;;;2.42;1.30;;;19.00;92.90;;;;;;5005490;28;20079;-81
2022/10/05 08:17:04;;;;;;;1.80;1.20;;;19.00;92.50;;;;;;5011038;28;20029;-81
2022/10/05 08:20:17;;;;;;;2.13;1.27;;;19.00;92.80;;;;;;5002992;28;20047;-81
2022/10/05 08:23:09;;;;;;;3.58;1.30;;;19.10;92.30;;;;;;5002725;28;20032;-81
2022/10/05 08:25:48;;;;;;;2.65;1.30;;;19.20;92.50;;;;;;4991525;28;20452;-79
2022/10/05 08:28:25;;;;;;;1.27;1.10;;;19.20;92.50;;;;;;5000031;28;20492;-81
2022/10/05 08:31:00;;;;;;;1.95;1.25;;;19.20;92.60;;;;;;4992372;28;20025;-80
2022/10/05 08:33:33;;;;;;;1.80;1.00;;;19.20;92.50;;;;;;5003090;28;20535;-81
2022/10/05 08:36:11;;;;;;;1.90;1.10;;;19.30;92.60;;;;;;5007907;28;20045;-82
2022/10/05 08:38:37;;;;;;;1.70;1.10;;;19.30;92.30;;;;;;5005676;28;20029;-80
2022/10/05 08:41:15;;;;;;;2.53;1.20;;;19.30;92.70;;;;;;5002026;28;20129;-79
2022/10/05 08:44:02;;;;;;;1.48;1.00;;;19.30;92.50;;;;;;5013894;28;20061;-80
2022/10/05 08:46:49;;;;;;;1.87;1.10;;;19.30;92.50;;;;;;5012785;28;20037;-81
2022/10/05 08:49:48;;;;;;;2.05;1.30;;;19.40;92.60;;;;;;5031406;28;20372;-80
2022/10/05 08:52:27;;;;;;;1.63;1.27;;;19.40;91.80;;;;;;5009030;28;20373;-79
2022/10/05 08:55:08;;;;;;;2.67;1.20;;;19.40;92.70;;;;;;4990696;28;20466;-81
2022/10/05 08:58:05;;;;;;;1.88;1.13;;;19.40;91.70;;;;;;5005694;28;20100;-81
2022/10/05 09:01:04;;;;;;;2.20;1.20;;;19.50;91.60;;;;;;4999879;28;20038;-81
2022/10/05 09:04:06;;;;;;;2.58;1.10;;;19.50;92.30;;;;;;4989142;28;20033;-80
2022/10/05 09:07:05;;;;;;;2.30;1.27;;;19.50;92.50;;;;;;5019581;28;20171;-81
2022/10/05 09:10:00;;;;;;;2.40;1.20;;;19.60;91.90;;;;;;4999518;28;20034;-81
2022/10/05 09:12:44;;;;;;;1.67;1.15;;;19.60;91.90;;;;;;4995303;28;20049;-82
2022/10/05 09:15:36;;;;;;;1.60;1.10;;;19.60;92.70;;;;;;4995808;28;20231;-81
2022/10/05 09:18:31;;;;;;;5.45;1.25;;;19.70;91.90;;;;;;5011509;28;20026;-79
2022/10/05 09:21:23;;;;;;;1.42;1.10;;;19.70;92.00;;;;;;4987152;28;20025;-80
2022/10/05 09:24:01;;;;;;;1.20;1.10;;;19.80;92.40;;;;;;4986486;28;20037;-83
2022/10/05 09:26:42;;;;;;;2.72;1.42;;;19.90;92.30;;;;;;4993952;28;20529;-80
2022/10/05 09:29:47;;;;;;;1.97;1.20;;;20.00;92.40;;;;;;4983188;28;20195;-81
2022/10/05 09:32:38;;;;;;;3.33;1.17;;;20.00;92.30;;;;;;5009422;28;20548;-81
2022/10/05 09:35:33;;;;;;;2.58;1.13;;;20.10;91.90;;;;;;5030487;28;20584;-81
2022/10/05 09:38:08;;;;;;;1.88;1.23;;;20.10;92.00;;;;;;5003018;28;20151;-80
2022/10/05 09:41:06;;;;;;;1.83;1.20;;;20.20;92.80;;;;;;5009648;28;20021;-82
2022/10/05 09:43:50;;;;;;;1.33;1.10;;;20.20;92.10;;;;;;5014673;28;20056;-81
2022/10/05 09:46:41;;;;;;;2.67;1.23;;;20.30;91.90;;;;;;5014233;28;20029;-81
2022/10/05 09:49:24;;;;;;;1.98;1.40;;;20.30;91.90;;;;;;5020070;28;20271;-82
2022/10/05 09:52:09;;;;;;;1.80;1.13;;;20.30;92.40;;;;;;5012056;28;20060;-81
2022/10/05 09:54:50;;;;;;;1.52;1.23;;;20.40;91.90;;;;;;5011325;28;20028;-81
2022/10/05 09:57:21;;;;;;;2.67;1.13;;;20.60;91.80;;;;;;4996719;28;20341;-82
2022/10/05 10:00:22;;;;;;;2.60;1.30;;;20.70;92.90;;;;;;5030805;28;20108;-81
2022/10/05 10:02:56;;;;;;;2.95;1.48;;;20.90;92.50;;;;;;4992655;28;20073;-79
2022/10/05 10:06:09;;;;;;;1.25;1.10;;;21.10;92.90;;;;;;5024444;28;20389;-82
2022/10/05 10:08:59;;;;;;;1.95;1.10;;;21.40;92.40;;;;;;5009693;28;20033;-82
2022/10/05 10:11:49;;;;;;;3.17;1.23;;;21.60;92.50;;;;;;5019436;28;20417;-81
2022/10/05 10:14:50;;;;;;;2.08;1.33;;;21.80;92.70;;;;;;5000210;28;20595;-81
2022/10/05 10:17:32;;;;;;;2.70;1.30;;;22.00;91.70;;;;;;4983616;28;20453;-81
2022/10/05 10:20:14;;;;;;;2.53;1.20;;;22.20;91.90;;;;;;5021301;28;20697;-80
2022/10/05 10:23:37;;;;;;;1.50;1.00;;;22.30;91.70;;;;;;5004064;28;21594;-81
2022/10/05 10:26:23;;;;;;;2.40;1.30;;;22.50;92.00;;;;;;4941353;28;20449;-80
2022/10/05 10:29:11;;;;;;;1.48;1.10;;;22.80;92.50;;;;;;4941770;28;20572;-81
2022/10/05 10:31:42;;;;;;;1.30;1.20;;;23.00;92.40;;;;;;5004176;28;20033;-81
2022/10/05 10:34:17;;;;;;;1.33;0.98;;;23.20;92.70;;;;;;4999912;28;20029;-81
2022/10/05 10:37:15;;;;;;;2.35;1.17;;;23.50;92.10;;;;;;5016162;28;20033;-80
2022/10/05 10:39:58;;;;;;;1.83;1.10;;;23.60;90.70;;;;;;5012180;28;20065;-80
2022/10/05 10:42:24;;;;;;;2.90;1.20;;;23.70;91.60;;;;;;4994060;28;20033;-81
2022/10/05 10:45:01;;;;;;;1.38;1.02;;;23.80;91.10;;;;;;4989257;28;20250;-82
2022/10/05 10:47:37;;;;;;;3.03;1.17;;;23.80;90.00;;;;;;5006814;28;20145;-81
2022/10/05 10:50:33;;;;;;;2.03;1.10;;;23.80;88.90;;;;;;4994408;28;20425;-82
2022/10/05 10:53:34;;;;;;;2.42;1.10;;;23.80;87.20;;;;;;5019384;28;20041;-80
2022/10/05 10:56:37;;;;;;;1.33;1.13;;;23.80;87.60;;;;;;5027387;28;20076;-81
2022/10/05 10:59:22;;;;;;;1.30;1.10;;;23.90;88.20;;;;;;4995688;28;20363;-81
2022/10/05 11:02:21;;;;;;;1.30;1.00;;;24.10;88.60;;;;;;5009456;28;20513;-81
2022/10/05 11:05:12;;;;;;;2.58;1.00;;;24.20;86.30;;;;;;4998491;28;21121;-81
2022/10/05 11:08:04;;;;;;;2.22;1.10;;;24.20;86.80;;;;;;4994636;28;20394;-83
2022/10/05 11:11:18;;;;;;;1.33;1.13;;;24.40;86.80;;;;;;5022308;28;20401;-81
2022/10/05 11:14:20;;;;;;;2.28;1.40;;;24.60;89.20;;;;;;4973280;28;20303;-81
2022/10/05 11:17:06;;;;;;;2.73;1.40;;;24.80;87.70;;;;;;5019942;28;20045;-83
2022/10/05 11:19:31;;;;;;;1.98;1.38;;;25.10;88.50;;;;;;5006604;28;20486;-82
2022/10/05 11:22:28;;;;;;;2.30;1.40;;;25.40;90.30;;;;;;5007451;28;20212;-81
2022/10/05 11:25:24;;;;;;;1.92;1.17;;;25.70;87.20;;;;;;4992486;28;20034;-81
2022/10/05 11:28:26;;;;;;;3.60;1.50;;;26.10;84.70;;;;;;5022394;28;20049;-82
2022/10/05 11:31:02;;;;;;;2.28;1.40;;;26.40;81.80;;;;;;5000141;28;20029;-80
2022/10/05 11:33:41;;;;;;;3.30;1.42;;;26.60;87.00;;;;;;4992038;28;20034;-81
2022/10/05 11:36:33;;;;;;;2.53;1.30;;;26.80;80.10;;;;;;5015328;28;20030;-81
2022/10/05 11:39:31;;;;;;;2.08;1.10;;;26.90;79.70;;;;;;5000071;28;20026;-81
2022/10/05 11:42:24;;;;;;;1.40;1.27;;;27.00;79.00;;;;;;5022618;28;20033;-82
2022/10/05 11:45:14;;;;;;;2.55;1.30;;;27.00;79.20;;;;;;5010177;28;20041;-81
2022/10/05 11:48:06;;;;;;;1.52;1.20;;;26.80;76.70;;;;;;4996598;28;20038;-82
2022/10/05 11:50:50;;;;;;;1.63;1.23;;;26.60;77.60;;;;;;5018468;28;20045;-82
2022/10/05 11:53:56;;;;;;;2.50;1.35;;;26.40;79.00;;;;;;4977875;28;20513;-82
2022/10/05 11:56:30;;;;;;;1.98;1.10;;;26.40;79.50;;;;;;4995061;28;20022;-82
2022/10/05 11:59:13;;;;;;;2.80;1.30;;;26.40;80.90;;;;;;5022520;28;20018;-81
2022/10/05 12:01:48;;;;;;;2.45;1.30;;;26.40;80.30;;;;;;4987122;28;20075;-80
2022/10/05 12:04:58;;;;;;;2.10;1.20;;;26.50;82.20;;;;;;5016363;28;20096;-80
2022/10/05 12:07:26;;;;;;;2.10;1.40;;;26.70;81.20;;;;;;4988475;28;24019;-81
2022/10/05 12:10:31;;;;;;;2.45;1.35;;;26.80;78.40;;;;;;5008984;28;20036;-82
2022/10/05 12:13:18;;;;;;;2.63;1.40;;;26.80;77.70;;;;;;5015420;28;20045;-81
2022/10/05 12:16:05;;;;;;;2.80;1.60;;;26.80;80.70;;;;;;5004059;28;20033;-79
2022/10/05 12:18:38;;;;;;;2.73;1.40;;;26.90;78.80;;;;;;5010242;28;20034;-81
2022/10/05 12:21:16;;;;;;;1.63;1.40;;;26.90;78.70;;;;;;4992309;28;20029;-82
2022/10/05 12:23:48;;;;;;;3.08;1.40;;;26.80;77.30;;;;;;5002186;28;20049;-81
2022/10/05 12:26:23;;;;;;;1.50;1.00;;;26.70;76.10;;;;;;4984143;28;20178;-81
2022/10/05 12:29:00;;;;;;;1.88;1.30;;;26.50;75.20;;;;;;5026910;28;20029;-81
2022/10/05 12:31:51;;;;;;;2.43;1.23;;;26.30;75.00;;;;;;4990430;28;20127;-81
2022/10/05 12:34:22;;;;;;;3.17;1.17;;;26.10;73.20;;;;;;4997270;28;20274;-81
2022/10/05 12:36:47;;;;;;;3.42;1.30;;;25.80;75.00;;;;;;5028138;28;20543;-80
2022/10/05 12:39:36;;;;;;;2.03;1.37;;;25.60;76.20;;;;;;4988048;28;20302;-80
2022/10/05 12:42:15;;;;;;;3.00;1.30;;;25.50;74.40;;;;;;4991374;28;20387;-81
2022/10/05 12:44:59;;;;;;;2.80;1.45;;;25.30;74.30;;;;;;5009848;28;20380;-79
2022/10/05 12:47:31;;;;;;;2.17;1.30;;;25.20;73.10;;;;;;4983592;28;20234;-81
2022/10/05 12:50:15;;;;;;;2.55;1.50;;;25.10;75.10;;;;;;5001790;28;20128;-80
2022/10/05 12:52:47;;;;;;;3.07;1.20;;;25.00;74.40;;;;;;5004363;28;20030;-81
2022/10/05 12:55:20;;;;;;;2.00;1.35;;;24.90;75.10;;;;;;4985020;28;20489;-79
2022/10/05 12:57:59;;;;;;;2.97;1.42;;;24.80;75.20;;;;;;5009618;28;20018;-82
2022/10/05 13:00:29;;;;;;;3.63;1.50;;;24.70;74.30;;;;;;5004420;28;20944;-82
2022/10/05 13:03:07;;;;;;;2.42;1.40;;;24.70;75.80;;;;;;4997806;28;20479;-79
2022/10/05 13:05:39;;;;;;;3.50;1.60;;;24.60;75.30;;;;;;5020826;28;20113;-81
2022/10/05 13:08:27;;;;;;;2.72;1.40;;;24.50;77.00;;;;;;5018065;28;20393;-80
2022/10/05 13:11:01;;;;;;;1.88;1.13;;;24.60;77.20;;;;;;4989888;28;20025;-81
2022/10/05 13:14:01;;;;;;;2.05;1.10;;;24.70;77.90;;;;;;5005501;28;20042;-81
2022/10/05 13:16:37;;;;;;;2.22;1.20;;;24.80;71.80;;;;;;5004081;28;20487;-80
2022/10/05 13:19:20;;;;;;;4.17;1.20;;;24.90;75.40;;;;;;5011931;28;20025;-80
2022/10/05 13:21:48;;;;;;;1.77;1.17;;;24.90;73.90;;;;;;5025748;28;20147;-82
2022/10/05 13:24:41;;;;;;;1.70;1.10;;;24.80;74.60;;;;;;5012525;28;20229;-81
2022/10/05 13:27:28;;;;;;;2.17;1.10;;;24.70;74.30;;;;;;4994117;28;20063;-80
2022/10/05 13:30:10;;;;;;;1.95;1.10;;;24.50;69.70;;;;;;4991169;28;20025;-78
2022/10/05 13:32:44;;;;;;;1.10;0.90;;;24.40;73.10;;;;;;5007788;28;24166;-81
2022/10/05 13:35:16;;;;;;;0.80;0.80;;;24.20;72.80;;;;;;4997659;28;20079;-81
2022/10/05 13:37:42;;;;;;;1.90;1.10;;;24.10;72.90;;;;;;4984565;28;20681;-80
2022/10/05 13:40:20;;;;;;;1.95;0.90;;;24.00;72.70;;;;;;5013882;28;20029;-80
2022/10/05 13:43:12;;;;;;;1.88;1.20;;;23.80;72.70;;;;;;4986483;28;20925;-80
2022/10/05 13:46:18;;;;;;;2.13;1.00;;;23.70;73.10;;;;;;5001946;28;20266;-82
2022/10/05 13:49:02;;;;;;;1.05;0.90;;;23.50;71.20;;;;;;4975288;28;20978;-81
2022/10/05 13:51:40;;;;;;;1.65;0.80;;;23.30;71.80;;;;;;5011997;28;20061;-82
2022/10/05 13:54:29;;;;;;;1.60;1.00;;;23.10;72.20;;;;;;4997010;28;22794;-81
2022/10/05 13:57:43;;;;;;;1.10;0.80;;;23.00;71.30;;;;;;4981454;28;20130;-82
2022/10/05 14:00:19;;;;;;;1.77;0.80;;;22.90;71.00;;;;;;4995756;28;20238;-81
2022/10/05 14:02:50;;;;;;;2.05;0.90;;;22.70;72.70;;;;;;5014599;28;20021;-80
2022/10/05 14:05:29;;;;;;;1.23;1.00;;;22.60;73.20;;;;;;4996536;28;20470;-81
2022/10/05 14:08:09;;;;;;;1.42;0.93;;;22.40;72.20;;;;;;5024354;28;20595;-81
2022/10/05 14:10:39;;;;;;;1.35;1.08;;;22.40;74.50;;;;;;4984643;28;20025;-80
2022/10/05 14:13:49;;;;;;;0.93;0.90;;;22.30;72.70;;;;;;4982913;28;20524;-81
2022/10/05 14:16:22;;;;;;;2.00;0.90;;;22.20;72.60;;;;;;4978873;28;20076;-80